»·PEaware :: N13M KAJO-KVCV

N13M :: KAJO-KVCV

FLIGHT INFORMATION

Flight Status: Arrived
Operator: Privately registered:
United States
More flights under this callsign
Pilot: Zhuojun Y. (28503)
Aircraft: SOCATA TBM-900
(TBM9)
More flights by this aircraft type
Origin: KAJO Corona Mun
United States
Destination: KVCV Socal Logistics
United States
More flights between these airports :: More routes between these airports
Route: PDZ V442 APLES
File this flight plan on PilotEdge
Remarks: I 11 RATING
Altitude:
(Current/Filed)
9,000ft
Speed:
(Current/Filed)
220kts
Departed: 22-Apr-20 08:48 PM
Arrived: 22-Apr-20 09:46 PM
Distance/Time
Traveled:
43nm/0:58
Distance/Time
To Go:
Arrived

Flight Plot

Page will automatically refresh every two minutes.


Map Options




Map Legend


Flown Route
Filed Route
Departure Airport
Arrival Airport
Navaid (VOR, NDB)
Fix

Horizontal Profiles

Position Reports

Time Latitude Longitude Heading Altitude Ground
Speed
22-Apr-20 20:30 33.896958 -117.596876 268 536ft 0kts
22-Apr-20 20:31 33.896958 -117.596876 268 536ft 0kts
22-Apr-20 20:32 33.896958 -117.596876 268 536ft 0kts
22-Apr-20 20:33 33.896958 -117.596876 268 536ft 0kts
22-Apr-20 20:34 33.896958 -117.596876 268 536ft 0kts
22-Apr-20 20:35 33.896958 -117.596876 268 536ft 0kts
22-Apr-20 20:36 33.896958 -117.596876 268 536ft 0kts
22-Apr-20 20:37 33.896958 -117.596876 268 536ft 0kts
22-Apr-20 20:38 33.896958 -117.596876 268 536ft 0kts
22-Apr-20 20:39 33.896958 -117.596876 268 536ft 0kts
22-Apr-20 20:40 33.896958 -117.596876 268 536ft 0kts
22-Apr-20 20:41 33.896958 -117.596876 268 536ft 0kts
22-Apr-20 20:42 33.896958 -117.596876 268 536ft 0kts
22-Apr-20 20:43 33.896958 -117.596876 268 536ft 0kts
22-Apr-20 20:44 33.896958 -117.596876 268 536ft 0kts
22-Apr-20 20:45 33.896957 -117.596923 268 536ft 0kts
22-Apr-20 20:46 33.897251 -117.597204 329 536ft 0kts
22-Apr-20 20:47 33.897671 -117.602702 269 536ft 99kts
22-Apr-20 20:48 33.899736 -117.647296 316 2230ft 152kts
22-Apr-20 20:49 33.914392 -117.612596 105 3761ft 192kts
22-Apr-20 20:50 33.894241 -117.546528 108 4013ft 228kts
22-Apr-20 20:51 33.889040 -117.478843 40 4083ft 166kts
22-Apr-20 20:52 33.917517 -117.509705 279 3401ft 186kts
22-Apr-20 20:53 33.930226 -117.555798 11 3889ft 170kts
22-Apr-20 20:54 33.965003 -117.515877 48 5305ft 186kts
22-Apr-20 20:55 33.935597 -117.480501 221 5660ft 237kts
22-Apr-20 20:57 33.917139 -117.547123 297 6694ft 201kts
22-Apr-20 20:58 33.964887 -117.547196 45 7544ft 215kts
22-Apr-20 20:59 33.962579 -117.487497 156 8655ft 231kts
22-Apr-20 21:00 33.921345 -117.531332 236 8640ft 220kts
22-Apr-20 21:01 33.930680 -117.578545 2 8997ft 187kts
22-Apr-20 21:02 33.941494 -117.522484 92 8998ft 215kts
22-Apr-20 21:03 33.982817 -117.488599 16 9020ft 196kts
22-Apr-20 21:04 34.033054 -117.460958 21 9021ft 203kts
22-Apr-20 21:05 34.085461 -117.429691 22 9037ft 214kts
22-Apr-20 21:06 34.139335 -117.397273 22 9039ft 217kts
22-Apr-20 21:07 34.193507 -117.364615 22 9039ft 217kts
22-Apr-20 21:08 34.246757 -117.332442 22 9022ft 193kts
22-Apr-20 21:09 34.290125 -117.306232 21 9027ft 161kts
22-Apr-20 21:10 34.329059 -117.282691 21 9034ft 154kts
22-Apr-20 21:11 34.366390 -117.260067 20 9104ft 140kts
22-Apr-20 21:12 34.401091 -117.239098 22 9192ft 151kts
22-Apr-20 21:13 34.441659 -117.214449 22 9188ft 169kts
22-Apr-20 21:13 34.477056 -117.192936 22 9184ft 173kts
22-Apr-20 21:15 34.526704 -117.162724 22 9174ft 163kts
22-Apr-20 21:15 34.560524 -117.146583 5 9180ft 153kts
22-Apr-20 21:16 34.606027 -117.143534 353 8260ft 174kts
22-Apr-20 21:18 34.638766 -117.149072 344 7443ft 173kts
22-Apr-20 21:18 34.676475 -117.164154 333 6669ft 160kts
22-Apr-20 21:19 34.710122 -117.187132 321 6670ft 126kts
22-Apr-20 21:20 34.736013 -117.213118 312 6675ft 115kts
22-Apr-20 21:21 34.758041 -117.243948 305 6694ft 134kts
22-Apr-20 21:22 34.778393 -117.285655 294 6688ft 150kts
22-Apr-20 21:23 34.793020 -117.338794 282 5962ft 164kts
22-Apr-20 21:24 34.781540 -117.380511 176 5253ft 146kts
22-Apr-20 21:25 34.742498 -117.377291 186 4843ft 148kts
22-Apr-20 21:26 34.701625 -117.380581 188 4367ft 136kts
22-Apr-20 21:27 34.663292 -117.384010 187 3659ft 114kts
22-Apr-20 21:28 34.636367 -117.386320 187 3450ft 92kts
22-Apr-20 21:29 34.599173 -117.389474 186 3713ft 172kts
22-Apr-20 21:30 34.564236 -117.411790 281 4410ft 158kts
22-Apr-20 21:31 34.599838 -117.434062 24 5484ft 164kts
22-Apr-20 21:32 34.625542 -117.457536 276 6099ft 163kts
22-Apr-20 21:33 34.632322 -117.514363 279 6081ft 171kts
22-Apr-20 21:34 34.639695 -117.571884 279 6024ft 175kts
22-Apr-20 21:35 34.613873 -117.602332 147 5753ft 207kts
22-Apr-20 21:36 34.595766 -117.538559 104 4235ft 197kts
22-Apr-20 21:37 34.588727 -117.478837 86 3810ft 143kts
22-Apr-20 21:38 34.591675 -117.438276 44 4517ft 149kts
22-Apr-20 21:39 34.633196 -117.414556 17 4480ft 175kts
22-Apr-20 21:40 34.680897 -117.406937 21 4420ft 151kts
22-Apr-20 21:41 34.676178 -117.367620 192 3861ft 133kts
22-Apr-20 21:42 34.645710 -117.387189 183 3644ft 113kts
22-Apr-20 21:43 34.622393 -117.368069 120 3491ft 127kts
22-Apr-20 21:44 34.600668 -117.366382 219 2873ft 100kts
22-Apr-20 21:45 34.591089 -117.377794 224 2868ft 21kts
22-Apr-20 21:46 34.589749 -117.377705 136 2872ft 0kts
22-Apr-20 21:47 34.588452 -117.378067 223 2876ft 15kts
22-Apr-20 21:48 34.584241 -117.380971 146 2881ft 20kts
22-Apr-20 21:49 34.583751 -117.380623 154 2882ft 0kts
22-Apr-20 21:50 34.583751 -117.380623 154 2882ft 0kts
22-Apr-20 21:51 34.583751 -117.380623 154 2882ft 0kts
22-Apr-20 21:52 34.583751 -117.380623 154 2882ft 0kts

Navigation Log

Ident Type
Flight plan parsing failed, navigation log unavailable